Time;durP1;ratioP1;P1;durP2;ratioP2;P2;SDS_P1;SDS_P2;PMS_P1;PMS_P2;Temp;Humidity;BMP_temperature;BMP_pressure;BME280_temperature;BME280_humidity;BME280_pressure;Samples;Min_cycle;Max_cycle;Signal;HPM_P1;HPM_P2
2021/08/14 00:02:04;;;;;;;10.07;8.60;;;16.10;99.90;;;;;;5044992;28;20459;-64
2021/08/14 00:04:31;;;;;;;10.07;7.63;;;16.00;99.90;;;;;;5052446;28;20484;-65
2021/08/14 00:06:57;;;;;;;9.97;8.30;;;16.00;99.90;;;;;;5039009;28;20450;-65
2021/08/14 00:09:24;;;;;;;14.70;8.63;;;16.00;99.90;;;;;;5043167;28;20444;-65
2021/08/14 00:11:52;;;;;;;9.13;8.23;;;16.00;99.90;;;;;;5050287;28;20983;-65
2021/08/14 00:14:19;;;;;;;10.80;7.67;;;16.00;99.90;;;;;;5044335;28;20464;-65
2021/08/14 00:16:46;;;;;;;11.93;8.97;;;15.90;99.90;;;;;;5032473;28;20816;-65
2021/08/14 00:19:13;;;;;;;10.97;9.77;;;15.90;99.90;;;;;;5038855;28;20475;-65
2021/08/14 00:21:39;;;;;;;11.20;10.07;;;15.90;99.90;;;;;;5051900;28;20440;-65
2021/08/14 00:24:06;;;;;;;9.53;8.60;;;15.80;99.90;;;;;;5050052;28;20981;-66
2021/08/14 00:26:33;;;;;;;22.03;10.80;;;15.80;99.90;;;;;;5050281;28;20852;-65
2021/08/14 00:29:01;;;;;;;9.10;8.20;;;15.80;99.90;;;;;;5036966;28;20460;-65
2021/08/14 00:31:27;;;;;;;10.20;9.10;;;15.80;99.90;;;;;;5031867;28;20449;-65
2021/08/14 00:33:54;;;;;;;10.30;9.10;;;15.70;99.90;;;;;;5032146;28;20468;-65
2021/08/14 00:36:21;;;;;;;10.47;9.17;;;15.80;99.90;;;;;;5032495;28;20444;-65
2021/08/14 00:38:47;;;;;;;9.40;8.50;;;15.70;99.90;;;;;;5051941;28;20444;-65
2021/08/14 00:41:15;;;;;;;14.00;10.70;;;15.70;99.90;;;;;;5051769;28;20933;-65
2021/08/14 00:43:42;;;;;;;11.20;9.30;;;15.70;99.90;;;;;;5048932;28;20476;-65
2021/08/14 00:46:10;;;;;;;12.77;10.63;;;15.70;99.90;;;;;;5032080;28;20448;-65
2021/08/14 00:48:37;;;;;;;10.03;9.00;;;15.70;99.90;;;;;;5031997;28;20782;-65
2021/08/14 00:51:04;;;;;;;12.03;10.70;;;15.70;99.90;;;;;;5036219;28;20809;-66
2021/08/14 00:53:31;;;;;;;10.70;8.60;;;15.60;99.90;;;;;;5051472;28;20804;-65
2021/08/14 00:55:58;;;;;;;10.33;9.23;;;15.60;99.90;;;;;;5042551;28;20505;-66
2021/08/14 00:58:25;;;;;;;11.00;9.90;;;15.60;99.90;;;;;;5036508;28;20802;-65
2021/08/14 01:00:52;;;;;;;10.60;9.50;;;15.60;99.90;;;;;;5031783;28;20866;-65
2021/08/14 01:03:20;;;;;;;11.80;10.57;;;15.50;99.90;;;;;;5031189;28;20477;-65
2021/08/14 01:05:47;;;;;;;21.77;11.87;;;15.50;99.90;;;;;;5040965;28;20451;-65
2021/08/14 01:08:15;;;;;;;10.57;9.37;;;15.40;99.90;;;;;;5051582;28;20444;-66
2021/08/14 01:10:43;;;;;;;12.03;9.80;;;15.40;99.90;;;;;;5032374;28;20442;-65
2021/08/14 01:13:10;;;;;;;12.60;9.83;;;15.40;99.90;;;;;;5031363;28;20473;-65
2021/08/14 01:15:40;;;;;;;10.50;9.53;;;15.40;99.90;;;;;;5049514;28;20852;-66
2021/08/14 01:18:07;;;;;;;11.43;9.60;;;15.30;99.90;;;;;;5051093;28;20817;-66
2021/08/14 01:20:35;;;;;;;10.20;9.17;;;15.30;99.90;;;;;;5048707;28;20490;-65
2021/08/14 01:23:01;;;;;;;10.40;9.17;;;15.30;99.90;;;;;;5051182;28;20469;-65
2021/08/14 01:25:28;;;;;;;19.63;9.47;;;15.30;99.90;;;;;;5037619;28;20477;-65
2021/08/14 01:27:56;;;;;;;13.07;10.50;;;15.30;99.90;;;;;;5031360;28;20449;-65
2021/08/14 01:30:23;;;;;;;10.13;9.00;;;15.20;99.90;;;;;;5031407;28;20445;-65
2021/08/14 01:32:50;;;;;;;12.83;9.60;;;15.20;99.90;;;;;;5031290;28;20469;-65
2021/08/14 01:35:17;;;;;;;12.73;9.13;;;15.20;99.90;;;;;;5050773;28;20494;-65
2021/08/14 01:37:43;;;;;;;10.63;9.43;;;15.20;99.90;;;;;;5049449;28;20444;-65
2021/08/14 01:40:11;;;;;;;10.53;9.40;;;15.20;99.90;;;;;;5048410;28;20817;-65
2021/08/14 01:42:37;;;;;;;9.43;8.53;;;15.20;99.90;;;;;;5031007;28;20469;-65
2021/08/14 01:45:07;;;;;;;12.10;9.50;;;15.10;99.90;;;;;;5030804;28;20488;-65
2021/08/14 01:47:34;;;;;;;10.80;9.53;;;15.10;99.90;;;;;;5036273;28;20447;-65
2021/08/14 01:50:00;;;;;;;11.73;10.40;;;15.10;99.90;;;;;;5037447;28;20461;-65
2021/08/14 01:52:27;;;;;;;13.57;9.77;;;15.10;99.90;;;;;;5031861;28;20449;-66
2021/08/14 01:54:54;;;;;;;14.37;10.50;;;15.10;99.90;;;;;;5031074;28;20448;-66
2021/08/14 01:57:20;;;;;;;10.40;9.30;;;15.00;99.90;;;;;;5044601;28;20538;-66
2021/08/14 01:59:47;;;;;;;14.17;11.43;;;15.00;99.90;;;;;;5041893;28;20447;-65
2021/08/14 02:02:15;;;;;;;14.50;10.97;;;15.00;99.90;;;;;;5039569;28;20456;-65
2021/08/14 02:04:42;;;;;;;12.80;9.93;;;15.00;99.90;;;;;;5032901;28;20475;-65
2021/08/14 02:07:09;;;;;;;12.87;10.63;;;15.00;99.90;;;;;;5030944;28;20441;-65
2021/08/14 02:09:35;;;;;;;17.50;10.77;;;15.00;99.90;;;;;;5031061;28;20811;-66
2021/08/14 02:12:02;;;;;;;12.90;9.70;;;15.00;99.90;;;;;;5030652;28;20452;-65
2021/08/14 02:14:29;;;;;;;12.30;11.00;;;15.00;99.90;;;;;;5030905;28;20461;-66
2021/08/14 02:16:55;;;;;;;11.20;9.97;;;15.00;99.90;;;;;;5030941;28;20441;-65
2021/08/14 02:19:23;;;;;;;10.93;9.60;;;14.90;99.90;;;;;;5030866;28;20436;-65
2021/08/14 02:21:50;;;;;;;15.43;11.23;;;14.90;99.90;;;;;;5030631;28;20444;-65
2021/08/14 02:24:17;;;;;;;14.37;11.57;;;14.90;99.90;;;;;;5030564;28;20492;-66
2021/08/14 02:26:43;;;;;;;13.83;11.47;;;14.90;99.90;;;;;;5034476;28;20444;-65
2021/08/14 02:29:10;;;;;;;13.70;10.60;;;14.80;99.90;;;;;;5034602;28;20453;-66
2021/08/14 02:31:37;;;;;;;14.80;11.20;;;14.80;99.90;;;;;;5034279;28;20456;-65
2021/08/14 02:34:04;;;;;;;15.30;11.07;;;14.80;99.90;;;;;;5033669;28;20819;-65
2021/08/14 02:36:32;;;;;;;17.67;11.40;;;14.80;99.90;;;;;;5033926;28;20441;-65
2021/08/14 02:38:58;;;;;;;17.30;10.83;;;14.80;99.90;;;;;;5034474;28;20452;-65
2021/08/14 02:41:25;;;;;;;18.60;12.63;;;14.80;99.90;;;;;;5034276;28;20507;-66
2021/08/14 02:43:52;;;;;;;17.40;12.03;;;14.90;99.90;;;;;;5034224;28;20839;-66
2021/08/14 02:46:18;;;;;;;13.70;11.93;;;14.80;99.90;;;;;;5034349;28;20445;-65
2021/08/14 02:48:45;;;;;;;13.27;11.07;;;14.80;99.90;;;;;;5034422;28;20444;-65
2021/08/14 02:51:12;;;;;;;13.47;10.87;;;14.90;99.90;;;;;;5034142;28;20965;-65
2021/08/14 02:53:40;;;;;;;13.70;10.27;;;15.00;99.90;;;;;;5034209;28;20465;-66
2021/08/14 02:56:06;;;;;;;16.40;12.47;;;15.10;99.90;;;;;;5034181;28;20445;-66
2021/08/14 02:58:33;;;;;;;12.97;10.50;;;15.10;99.90;;;;;;5034175;28;20448;-65
2021/08/14 03:01:00;;;;;;;15.80;12.50;;;15.20;99.90;;;;;;5033620;28;20456;-66
2021/08/14 03:03:27;;;;;;;12.50;10.33;;;15.30;99.90;;;;;;5033451;28;20488;-65
2021/08/14 03:05:53;;;;;;;12.83;10.93;;;15.40;99.90;;;;;;5033484;28;20481;-65
2021/08/14 03:08:20;;;;;;;14.20;11.40;;;15.40;99.90;;;;;;5033398;28;20453;-65
2021/08/14 03:10:48;;;;;;;16.90;14.47;;;15.50;99.90;;;;;;5034038;28;20445;-66
2021/08/14 03:13:15;;;;;;;15.07;11.17;;;15.50;99.90;;;;;;5033684;28;20978;-65
2021/08/14 03:15:42;;;;;;;13.30;9.67;;;15.50;99.90;;;;;;5033842;28;20452;-66
2021/08/14 03:18:09;;;;;;;12.57;10.23;;;15.40;99.90;;;;;;5033725;28;20452;-65
2021/08/14 03:20:36;;;;;;;12.63;9.80;;;15.40;99.90;;;;;;5033827;28;20449;-65
2021/08/14 03:23:03;;;;;;;10.37;9.27;;;15.40;99.90;;;;;;5033418;28;20468;-65
2021/08/14 03:25:30;;;;;;;13.97;10.77;;;15.30;99.90;;;;;;5033747;28;20913;-65
2021/08/14 03:27:58;;;;;;;13.90;12.43;;;15.30;99.90;;;;;;5033607;28;20475;-65
2021/08/14 03:30:25;;;;;;;14.03;12.67;;;15.20;99.90;;;;;;5033586;28;20433;-65
2021/08/14 03:32:52;;;;;;;13.80;10.37;;;15.20;99.90;;;;;;5033319;28;20469;-65
2021/08/14 03:35:19;;;;;;;17.40;10.27;;;15.20;99.90;;;;;;5033723;28;20658;-65
2021/08/14 03:37:46;;;;;;;13.87;10.60;;;15.10;99.90;;;;;;5032330;28;21021;-65
2021/08/14 03:40:13;;;;;;;14.40;11.47;;;15.10;99.90;;;;;;5033439;28;20519;-65
2021/08/14 03:42:40;;;;;;;17.30;12.33;;;15.10;99.90;;;;;;5033056;28;20908;-65
2021/08/14 03:45:09;;;;;;;14.30;10.97;;;15.00;99.90;;;;;;5033282;28;20480;-65
2021/08/14 03:47:36;;;;;;;14.03;12.47;;;15.00;99.90;;;;;;5033293;28;20450;-65
2021/08/14 03:50:03;;;;;;;14.30;11.20;;;14.90;99.90;;;;;;5033329;28;20472;-65
2021/08/14 03:52:30;;;;;;;13.53;12.13;;;14.90;99.90;;;;;;5032910;28;20448;-65
2021/08/14 03:54:57;;;;;;;16.87;12.00;;;14.90;99.90;;;;;;5033089;28;20441;-64
2021/08/14 03:57:25;;;;;;;19.47;14.57;;;14.90;99.90;;;;;;5033092;28;20503;-65
2021/08/14 03:59:52;;;;;;;13.70;11.37;;;14.90;99.90;;;;;;5032989;28;20452;-65
2021/08/14 04:02:20;;;;;;;16.90;11.53;;;14.90;99.90;;;;;;5032683;28;20441;-66
2021/08/14 04:04:48;;;;;;;12.23;11.03;;;14.90;99.90;;;;;;5032989;28;20483;-66
2021/08/14 04:07:14;;;;;;;16.03;11.13;;;14.90;99.90;;;;;;5032950;28;20449;-65
2021/08/14 04:09:41;;;;;;;15.80;13.03;;;14.90;99.90;;;;;;5032763;28;20445;-66
2021/08/14 04:12:08;;;;;;;14.10;11.07;;;14.80;99.90;;;;;;5032536;28;20440;-65
2021/08/14 04:14:36;;;;;;;17.23;11.30;;;14.80;99.90;;;;;;5032573;28;21013;-65
2021/08/14 04:17:03;;;;;;;14.40;12.33;;;14.70;99.90;;;;;;5032644;28;20862;-65
2021/08/14 04:19:31;;;;;;;13.20;11.77;;;14.70;99.90;;;;;;5032639;28;20448;-65
2021/08/14 04:22:00;;;;;;;17.83;12.17;;;14.70;99.90;;;;;;5032332;28;20454;-65
2021/08/14 04:24:27;;;;;;;17.70;11.37;;;14.70;99.90;;;;;;5032386;28;20538;-65
2021/08/14 04:26:53;;;;;;;19.80;13.93;;;14.60;99.90;;;;;;5032499;28;20460;-64
2021/08/14 04:29:20;;;;;;;17.23;12.50;;;14.60;99.90;;;;;;5032367;28;20441;-65
2021/08/14 04:31:47;;;;;;;16.20;12.47;;;14.50;99.90;;;;;;5032216;28;20456;-65
2021/08/14 04:34:14;;;;;;;17.63;11.80;;;14.50;99.90;;;;;;5032459;28;20996;-65
2021/08/14 04:36:42;;;;;;;15.20;11.60;;;14.60;99.90;;;;;;5032381;28;20858;-65
2021/08/14 04:39:08;;;;;;;17.83;11.00;;;14.60;99.90;;;;;;5032297;28;20449;-65
2021/08/14 04:41:35;;;;;;;15.27;13.60;;;14.70;99.90;;;;;;5031958;28;20449;-65
2021/08/14 04:44:02;;;;;;;19.00;13.60;;;14.70;99.90;;;;;;5032010;28;20461;-65
2021/08/14 04:46:28;;;;;;;20.00;12.43;;;14.70;99.90;;;;;;5032306;28;20477;-65
2021/08/14 04:48:55;;;;;;;15.40;10.40;;;14.60;99.90;;;;;;5031113;28;20499;-65
2021/08/14 04:51:21;;;;;;;25.77;13.10;;;14.70;99.90;;;;;;5031706;28;20442;-65
2021/08/14 04:53:49;;;;;;;15.53;11.30;;;14.70;99.90;;;;;;5031779;28;20461;-65
2021/08/14 04:56:16;;;;;;;15.57;12.60;;;14.80;99.90;;;;;;5031865;28;20490;-65
2021/08/14 04:58:43;;;;;;;16.90;12.83;;;14.90;99.90;;;;;;5031779;28;20954;-65
2021/08/14 05:01:09;;;;;;;16.97;12.90;;;14.90;99.90;;;;;;5031545;28;20449;-65
2021/08/14 05:03:36;;;;;;;15.80;13.00;;;14.90;99.90;;;;;;5071104;22;20498;-66
2021/08/14 05:06:03;;;;;;;22.90;13.23;;;15.00;99.90;;;;;;5070497;28;20475;-67
2021/08/14 05:08:30;;;;;;;21.03;12.37;;;15.00;99.90;;;;;;5070645;28;20807;-66
2021/08/14 05:10:58;;;;;;;18.50;11.60;;;15.10;99.90;;;;;;5070690;28;20815;-65
2021/08/14 05:13:24;;;;;;;17.70;13.50;;;15.10;99.90;;;;;;5070547;28;20459;-66
2021/08/14 05:15:51;;;;;;;15.87;14.17;;;15.20;99.90;;;;;;5070572;28;20446;-67
2021/08/14 05:18:18;;;;;;;16.67;13.10;;;15.30;99.90;;;;;;5070629;28;20451;-66
2021/08/14 05:20:44;;;;;;;21.27;12.27;;;15.30;99.90;;;;;;5070285;28;20447;-66
2021/08/14 05:23:11;;;;;;;16.13;12.67;;;15.40;99.90;;;;;;5070234;28;20462;-67
2021/08/14 05:25:38;;;;;;;17.57;11.83;;;15.50;99.90;;;;;;5070248;28;20483;-66
2021/08/14 05:28:06;;;;;;;15.97;12.80;;;15.50;99.90;;;;;;5069028;28;20450;-66
2021/08/14 05:30:33;;;;;;;18.23;12.53;;;15.60;99.90;;;;;;5068811;28;20447;-66
2021/08/14 05:32:59;;;;;;;16.00;13.23;;;15.70;99.90;;;;;;5069935;28;20471;-66
2021/08/14 05:35:26;;;;;;;16.43;11.60;;;15.70;99.90;;;;;;5070395;28;20943;-66
2021/08/14 05:37:53;;;;;;;33.13;13.60;;;15.80;99.90;;;;;;5070456;28;20446;-66
2021/08/14 05:40:20;;;;;;;19.20;11.70;;;15.90;99.90;;;;;;5070315;28;20807;-66
2021/08/14 05:42:46;;;;;;;13.77;11.03;;;16.00;99.90;;;;;;5070057;28;20446;-67
2021/08/14 05:45:14;;;;;;;16.00;9.60;;;16.10;99.90;;;;;;5070319;28;20488;-66
2021/08/14 05:47:41;;;;;;;12.87;11.30;;;16.10;99.90;;;;;;5070292;28;21028;-67
2021/08/14 05:50:08;;;;;;;16.17;11.93;;;16.20;99.90;;;;;;5070117;28;20943;-67
2021/08/14 05:52:35;;;;;;;13.60;10.50;;;16.30;99.90;;;;;;5069970;28;20808;-67
2021/08/14 05:55:02;;;;;;;12.47;10.90;;;16.40;99.90;;;;;;5069971;28;20467;-67
2021/08/14 05:57:28;;;;;;;13.90;11.53;;;16.40;99.90;;;;;;5070077;28;20439;-67
2021/08/14 05:59:55;;;;;;;13.30;10.20;;;16.50;99.90;;;;;;5070223;28;20455;-67
2021/08/14 06:02:23;;;;;;;14.90;11.00;;;16.60;99.90;;;;;;5073316;28;20497;-66
2021/08/14 06:04:50;;;;;;;14.37;9.40;;;16.60;99.90;;;;;;5038430;28;1033948;-67
2021/08/14 06:07:16;;;;;;;15.27;9.53;;;16.80;99.90;;;;;;5074914;28;20205;-66
2021/08/14 06:09:43;;;;;;;15.23;9.00;;;16.90;99.90;;;;;;5074802;28;20439;-67
2021/08/14 06:12:10;;;;;;;16.83;10.07;;;17.00;99.90;;;;;;5074594;28;20438;-66
2021/08/14 06:14:37;;;;;;;13.10;8.50;;;17.10;99.90;;;;;;5074635;28;20499;-67
2021/08/14 06:17:06;;;;;;;21.77;10.03;;;17.10;99.90;;;;;;5074740;28;20439;-66
2021/08/14 06:19:36;;;;;;;13.73;9.57;;;17.20;99.90;;;;;;5074650;28;20472;-67
2021/08/14 06:22:03;;;;;;;10.03;9.03;;;17.30;99.90;;;;;;5074536;28;20458;-67
2021/08/14 06:24:30;;;;;;;9.60;8.57;;;17.40;99.90;;;;;;5074470;28;20467;-66
2021/08/14 06:26:56;;;;;;;15.20;9.00;;;17.40;99.90;;;;;;5074605;28;20475;-66
2021/08/14 06:29:23;;;;;;;10.67;8.10;;;17.50;99.90;;;;;;5074453;28;20443;-65
2021/08/14 06:31:50;;;;;;;15.43;9.10;;;17.50;99.90;;;;;;5074067;28;20443;-66
2021/08/14 06:34:17;;;;;;;13.57;8.17;;;17.60;99.90;;;;;;5074288;28;20470;-66
2021/08/14 06:36:45;;;;;;;11.40;7.23;;;17.70;99.90;;;;;;5074400;28;20439;-67
2021/08/14 06:39:11;;;;;;;17.93;10.00;;;17.90;99.90;;;;;;5073394;28;20447;-69
2021/08/14 06:41:38;;;;;;;10.70;9.63;;;17.90;99.90;;;;;;5073697;28;20496;-67
2021/08/14 06:44:05;;;;;;;10.13;8.27;;;18.00;99.90;;;;;;5074059;28;20470;-68
2021/08/14 06:46:31;;;;;;;16.77;8.93;;;18.10;99.90;;;;;;5074055;28;20486;-67
2021/08/14 06:48:59;;;;;;;15.60;9.73;;;18.20;99.90;;;;;;5073955;28;20451;-67
2021/08/14 06:51:26;;;;;;;12.60;11.20;;;18.20;99.90;;;;;;5073680;28;20483;-68
2021/08/14 06:53:54;;;;;;;12.23;11.10;;;18.20;99.90;;;;;;5074015;28;20886;-67
2021/08/14 06:56:20;;;;;;;13.30;12.20;;;18.20;99.90;;;;;;5074199;28;20912;-67
2021/08/14 06:58:48;;;;;;;12.40;11.13;;;18.30;99.90;;;;;;5074163;28;20447;-67
2021/08/14 07:01:15;;;;;;;13.37;12.13;;;18.40;99.90;;;;;;5074095;28;20497;-66
2021/08/14 07:03:42;;;;;;;14.10;12.43;;;18.40;99.90;;;;;;5073829;28;21043;-66
2021/08/14 07:06:09;;;;;;;13.70;12.70;;;18.60;99.90;;;;;;5073815;28;21013;-66
2021/08/14 07:08:35;;;;;;;15.43;12.80;;;18.80;99.90;;;;;;5074108;28;20451;-67
2021/08/14 07:11:03;;;;;;;14.47;13.10;;;19.00;99.90;;;;;;5073571;28;20773;-66
2021/08/14 07:13:31;;;;;;;16.10;14.70;;;19.10;99.90;;;;;;5073881;28;20463;-68
2021/08/14 07:15:57;;;;;;;14.77;13.57;;;19.20;99.90;;;;;;5073658;28;20450;-67
2021/08/14 07:18:24;;;;;;;25.00;15.03;;;19.20;99.90;;;;;;5073084;28;20447;-68
2021/08/14 07:20:51;;;;;;;16.17;14.60;;;19.30;99.90;;;;;;5073468;28;20451;-67
2021/08/14 07:23:18;;;;;;;21.47;15.73;;;19.40;99.90;;;;;;5073322;28;20476;-67
2021/08/14 07:25:44;;;;;;;15.70;14.17;;;19.40;99.90;;;;;;5072794;28;20484;-66
2021/08/14 07:28:12;;;;;;;16.47;15.00;;;19.40;99.90;;;;;;5072849;28;20454;-66
2021/08/14 07:30:39;;;;;;;15.00;13.70;;;19.50;99.90;;;;;;5072998;28;20455;-65
2021/08/14 07:33:06;;;;;;;15.43;14.10;;;19.60;99.90;;;;;;5072812;28;20467;-65
2021/08/14 07:35:33;;;;;;;15.10;13.97;;;19.70;99.90;;;;;;5073257;28;21006;-67
2021/08/14 07:37:59;;;;;;;15.10;14.00;;;19.70;99.90;;;;;;5073389;28;20962;-66
2021/08/14 07:40:26;;;;;;;16.33;14.90;;;19.90;99.90;;;;;;5072751;28;20866;-66
2021/08/14 07:42:54;;;;;;;14.93;13.60;;;19.90;99.90;;;;;;5072861;28;20477;-66
2021/08/14 07:45:23;;;;;;;16.60;15.50;;;20.00;99.90;;;;;;5072913;28;20447;-65
2021/08/14 07:47:51;;;;;;;15.20;14.20;;;20.00;99.90;;;;;;5073228;28;20439;-66
2021/08/14 07:50:20;;;;;;;15.60;14.53;;;20.10;99.90;;;;;;5073029;28;20451;-67
2021/08/14 07:52:47;;;;;;;19.47;15.53;;;20.20;99.90;;;;;;5072428;28;20443;-66
2021/08/14 07:55:14;;;;;;;17.03;15.77;;;20.20;99.90;;;;;;5072781;28;20454;-66
2021/08/14 07:57:41;;;;;;;16.00;14.80;;;20.30;99.90;;;;;;5072485;28;20443;-66
2021/08/14 08:00:10;;;;;;;17.47;16.17;;;20.40;99.90;;;;;;5072649;28;20459;-66
2021/08/14 08:02:38;;;;;;;16.83;15.80;;;20.40;99.90;;;;;;5072441;28;20444;-67
2021/08/14 08:05:07;;;;;;;17.87;16.30;;;20.50;99.90;;;;;;5072322;28;20482;-66
2021/08/14 08:07:34;;;;;;;22.37;17.50;;;20.50;99.90;;;;;;5072776;28;20474;-67
2021/08/14 08:10:02;;;;;;;16.10;15.00;;;20.60;99.90;;;;;;5072373;28;20443;-67
2021/08/14 08:12:29;;;;;;;16.40;15.30;;;20.60;99.90;;;;;;5072304;28;20450;-68
2021/08/14 08:14:55;;;;;;;17.50;15.73;;;20.80;99.90;;;;;;5072173;28;20473;-66
2021/08/14 08:17:22;;;;;;;16.77;15.47;;;20.90;99.90;;;;;;5072409;28;20451;-67
2021/08/14 08:19:50;;;;;;;16.50;15.10;;;21.00;99.90;;;;;;5072170;28;20450;-68
2021/08/14 08:22:17;;;;;;;16.63;15.47;;;21.10;99.90;;;;;;5070962;28;20877;-67
2021/08/14 08:24:44;;;;;;;14.90;14.10;;;21.20;99.90;;;;;;5072389;28;20471;-68
2021/08/14 08:27:10;;;;;;;15.47;14.37;;;21.30;99.90;;;;;;5071687;28;20520;-67
2021/08/14 08:29:38;;;;;;;15.20;14.20;;;21.30;99.90;;;;;;5072022;28;20463;-67
2021/08/14 08:32:06;;;;;;;16.07;14.67;;;21.40;99.90;;;;;;5071987;28;21000;-67
2021/08/14 08:34:33;;;;;;;18.13;16.67;;;21.40;99.90;;;;;;5072133;28;20538;-67
2021/08/14 08:37:02;;;;;;;16.50;15.33;;;21.60;99.90;;;;;;5072249;28;20828;-67
2021/08/14 08:39:31;;;;;;;16.33;15.10;;;21.60;99.90;;;;;;5071522;28;20443;-67
2021/08/14 08:41:59;;;;;;;17.00;15.50;;;21.60;99.90;;;;;;5071535;28;21025;-67
2021/08/14 08:44:26;;;;;;;17.13;15.93;;;21.70;99.90;;;;;;5071646;28;20467;-67
2021/08/14 08:46:53;;;;;;;16.67;15.67;;;21.70;99.90;;;;;;5072059;28;20820;-68
2021/08/14 08:49:21;;;;;;;16.93;15.73;;;21.90;99.90;;;;;;5071475;28;20443;-68
2021/08/14 08:51:48;;;;;;;17.60;16.50;;;22.00;99.90;;;;;;5071568;28;20486;-68
2021/08/14 08:54:17;;;;;;;21.13;16.63;;;22.10;99.90;;;;;;5071622;28;20474;-68
2021/08/14 08:56:44;;;;;;;16.93;15.90;;;22.10;99.90;;;;;;5071486;28;20462;-69
2021/08/14 08:59:12;;;;;;;17.50;16.50;;;22.30;99.90;;;;;;5071663;28;20458;-68
2021/08/14 09:01:39;;;;;;;19.17;17.90;;;22.30;99.90;;;;;;5071403;28;20459;-68
2021/08/14 09:04:26;;;;;;;16.97;16.03;;;22.50;99.90;;;;;;5071452;28;21007;-68
2021/08/14 09:06:54;;;;;;;18.10;17.20;;;22.60;99.90;;;;;;5071531;28;20576;-68
2021/08/14 09:09:26;;;;;;;16.53;15.53;;;22.60;96.40;;;;;;5071755;28;20944;-67
2021/08/14 09:11:59;;;;;;;16.90;15.90;;;22.60;94.60;;;;;;5071945;28;20462;-68
2021/08/14 09:14:26;;;;;;;17.53;16.53;;;22.50;94.30;;;;;;5071909;28;20528;-67
2021/08/14 09:17:08;;;;;;;16.93;16.00;;;22.70;95.20;;;;;;5071845;28;20446;-67
2021/08/14 09:19:36;;;;;;;16.83;15.93;;;22.70;94.90;;;;;;5068821;28;20955;-68
2021/08/14 09:22:13;;;;;;;17.33;16.23;;;22.70;94.00;;;;;;5071223;28;20793;-67
2021/08/14 09:24:43;;;;;;;17.10;15.90;;;22.90;94.60;;;;;;5071104;28;20470;-68
2021/08/14 09:27:15;;;;;;;16.60;15.90;;;22.90;92.40;;;;;;5071071;28;20479;-67
2021/08/14 09:29:42;;;;;;;15.83;14.90;;;22.90;91.40;;;;;;5071417;28;20945;-67
2021/08/14 09:32:11;;;;;;;16.70;15.67;;;23.00;90.00;;;;;;5071466;28;20451;-68
2021/08/14 09:34:42;;;;;;;17.13;16.03;;;23.00;88.80;;;;;;5070144;28;20832;-68
2021/08/14 09:37:11;;;;;;;16.20;15.27;;;23.00;86.20;;;;;;5071452;28;20435;-67
2021/08/14 09:39:56;;;;;;;16.60;15.60;;;23.00;79.40;;;;;;5071183;28;20936;-69
2021/08/14 09:42:22;;;;;;;16.83;15.83;;;23.10;80.40;;;;;;5071141;28;20443;-72
2021/08/14 09:45:11;;;;;;;17.87;16.60;;;23.10;81.70;;;;;;5071053;28;20471;-68
2021/08/14 09:47:37;;;;;;;16.60;15.70;;;23.20;77.90;;;;;;5071014;28;20556;-67
2021/08/14 09:50:05;;;;;;;17.27;16.27;;;23.40;78.10;;;;;;5071111;28;20450;-69
2021/08/14 09:52:32;;;;;;;17.80;16.70;;;23.50;78.70;;;;;;5070813;28;20439;-69
2021/08/14 09:55:00;;;;;;;17.17;16.27;;;23.60;76.20;;;;;;5071546;28;20840;-68
2021/08/14 09:57:27;;;;;;;17.03;16.03;;;23.60;73.40;;;;;;5071852;28;20443;-68
2021/08/14 09:59:54;;;;;;;18.53;17.53;;;23.70;73.70;;;;;;5071247;28;20447;-68
2021/08/14 10:02:23;;;;;;;17.00;16.20;;;23.80;75.60;;;;;;5070785;28;20443;-68
2021/08/14 10:04:51;;;;;;;17.83;16.90;;;23.80;73.20;;;;;;5071019;28;20566;-68
2021/08/14 10:07:18;;;;;;;17.93;16.93;;;23.80;70.90;;;;;;5071019;28;20479;-68
2021/08/14 10:09:46;;;;;;;17.03;16.03;;;23.80;73.20;;;;;;5070646;28;20534;-67
2021/08/14 10:12:17;;;;;;;19.13;17.87;;;23.90;74.60;;;;;;5070916;28;20450;-68
2021/08/14 10:14:45;;;;;;;16.90;16.20;;;24.00;74.70;;;;;;5070438;28;20470;-68
2021/08/14 10:17:13;;;;;;;17.57;16.67;;;24.20;72.80;;;;;;5071090;28;20467;-68
2021/08/14 10:19:40;;;;;;;18.10;17.30;;;24.20;67.30;;;;;;5070147;28;20451;-68
2021/08/14 10:22:09;;;;;;;17.80;16.73;;;24.30;67.50;;;;;;5069977;28;20451;-67
2021/08/14 10:24:37;;;;;;;17.60;16.60;;;24.40;66.10;;;;;;5070723;28;20996;-68
2021/08/14 10:27:05;;;;;;;17.63;16.93;;;24.40;65.00;;;;;;5070502;28;20479;-68
2021/08/14 10:29:50;;;;;;;18.10;16.90;;;24.50;62.50;;;;;;5070707;28;20448;-68
2021/08/14 10:32:48;;;;;;;17.70;16.70;;;24.50;65.20;;;;;;5070492;28;20446;-68
2021/08/14 10:35:33;;;;;;;17.17;16.00;;;24.60;62.80;;;;;;5070892;28;20443;-68
2021/08/14 10:38:00;;;;;;;17.33;16.43;;;24.80;63.90;;;;;;5070662;28;20443;-68
2021/08/14 10:41:00;;;;;;;17.00;16.20;;;25.10;62.30;;;;;;5070328;28;20443;-68
2021/08/14 10:44:04;;;;;;;16.90;15.97;;;25.20;60.70;;;;;;5050689;28;20472;-68
2021/08/14 10:46:43;;;;;;;16.30;15.50;;;25.30;59.80;;;;;;5052596;28;20479;-68
2021/08/14 10:49:13;;;;;;;17.17;16.27;;;25.50;60.80;;;;;;5073286;28;20439;-68
2021/08/14 10:52:14;;;;;;;16.83;16.23;;;25.60;57.80;;;;;;5074228;28;20481;-66
2021/08/14 10:55:14;;;;;;;18.27;17.37;;;25.70;57.20;;;;;;5073857;28;20835;-68
2021/08/14 10:57:48;;;;;;;16.80;16.20;;;25.70;56.40;;;;;;5071143;28;20440;-67
2021/08/14 11:00:24;;;;;;;17.17;16.47;;;25.50;57.80;;;;;;5073728;28;20471;-68
2021/08/14 11:03:03;;;;;;;17.97;16.90;;;25.50;57.80;;;;;;5073403;28;20447;-68
2021/08/14 11:05:30;;;;;;;17.93;17.10;;;25.70;56.90;;;;;;5104935;22;20584;-66
2021/08/14 11:08:00;;;;;;;18.90;17.93;;;25.80;55.70;;;;;;5074249;28;20482;-67
2021/08/14 11:10:32;;;;;;;18.70;17.90;;;26.20;56.90;;;;;;5074973;28;20474;-67
2021/08/14 11:12:58;;;;;;;18.23;17.50;;;26.50;57.20;;;;;;5073655;28;20462;-67
2021/08/14 11:15:28;;;;;;;17.93;17.13;;;26.90;55.60;;;;;;5060591;28;20471;-66
2021/08/14 11:17:58;;;;;;;19.07;18.20;;;27.20;53.50;;;;;;5053740;28;20444;-66
2021/08/14 11:20:37;;;;;;;18.87;18.07;;;27.30;51.80;;;;;;5068285;28;20487;-66
2021/08/14 11:23:21;;;;;;;19.70;18.80;;;27.80;53.20;;;;;;5073413;28;20465;-67
2021/08/14 11:25:48;;;;;;;19.03;18.23;;;28.50;51.50;;;;;;5071938;28;20447;-67
2021/08/14 11:28:21;;;;;;;19.83;18.83;;;29.00;47.70;;;;;;5053319;28;20804;-67
2021/08/14 11:30:49;;;;;;;18.97;18.07;;;29.10;47.80;;;;;;5053272;28;20444;-65
2021/08/14 11:33:24;;;;;;;20.80;19.83;;;29.60;46.40;;;;;;5053264;28;20455;-66
2021/08/14 11:36:04;;;;;;;19.30;18.47;;;30.30;45.40;;;;;;5053285;28;20856;-67
2021/08/14 11:38:35;;;;;;;20.03;19.23;;;31.20;43.60;;;;;;5053118;28;20448;-67
2021/08/14 11:41:03;;;;;;;19.17;18.37;;;32.50;41.30;;;;;;5052824;28;20439;-66
2021/08/14 11:43:38;;;;;;;21.40;20.08;;;33.80;40.10;;;;;;5053029;28;20201;-65
2021/08/14 11:46:06;;;;;;;20.58;19.67;;;36.40;37.50;;;;;;5052962;28;20662;-66
2021/08/14 11:48:42;;;;;;;19.52;18.42;;;37.60;34.70;;;;;;5053236;28;20227;-66
2021/08/14 11:51:17;;;;;;;20.95;19.95;;;38.70;32.20;;;;;;5052617;28;20201;-65
2021/08/14 11:53:44;;;;;;;21.30;19.77;;;39.90;30.00;;;;;;5052675;28;20213;-67
2021/08/14 11:56:12;;;;;;;19.50;18.60;;;40.70;28.90;;;;;;5052932;28;20292;-65
2021/08/14 11:58:41;;;;;;;20.10;19.20;;;41.50;28.20;;;;;;5051749;28;20201;-66
2021/08/14 12:01:11;;;;;;;20.15;19.25;;;42.30;27.10;;;;;;5052452;28;20200;-66
2021/08/14 12:03:38;;;;;;;20.95;20.05;;;42.80;26.50;;;;;;5052568;28;20212;-65
2021/08/14 12:06:11;;;;;;;19.10;18.25;;;43.00;25.60;;;;;;5052612;28;20224;-67
2021/08/14 12:08:39;;;;;;;19.85;19.02;;;43.80;25.40;;;;;;5052638;28;20225;-66
2021/08/14 12:11:07;;;;;;;20.58;19.25;;;45.10;24.80;;;;;;5052130;28;20202;-66
2021/08/14 12:13:35;;;;;;;20.00;19.17;;;46.10;23.90;;;;;;5052560;28;20213;-66
2021/08/14 12:16:13;;;;;;;18.48;17.75;;;46.10;23.00;;;;;;5052224;28;20287;-66
2021/08/14 12:18:42;;;;;;;20.45;19.55;;;47.50;22.70;;;;;;5052082;28;20204;-66
2021/08/14 12:21:12;;;;;;;19.52;18.65;;;47.90;22.00;;;;;;5052701;28;20208;-66
2021/08/14 12:23:40;;;;;;;18.73;18.13;;;47.70;22.10;;;;;;5055120;28;20195;-67
2021/08/14 12:26:09;;;;;;;19.60;18.80;;;47.80;21.50;;;;;;5068052;28;20201;-63
2021/08/14 12:28:37;;;;;;;20.17;19.38;;;48.00;21.70;;;;;;5052183;28;20301;-63
2021/08/14 12:31:15;;;;;;;19.90;19.10;;;49.10;21.70;;;;;;5069498;28;20197;-63
2021/08/14 12:33:48;;;;;;;20.35;19.40;;;49.00;20.80;;;;;;5071370;28;20228;-63
2021/08/14 12:36:31;;;;;;;19.17;18.48;;;49.80;20.80;;;;;;5052390;28;20201;-64